TimeCST,TemperatureF,Dew PointF,Humidity,Sea Level PressureIn,VisibilityMPH,Wind Direction,Wind SpeedMPH,Gust SpeedMPH,PrecipitationIn,Events,Conditions,WindDirDegrees,DateUTC
12:53 AM,28.9,19.0,67,30.12,10.0,South,5.8,-,N/A,,Clear,170,2013-12-13 06:53:00
1:53 AM,23.0,16.0,74,30.10,10.0,SSE,6.9,-,N/A,,Clear,160,2013-12-13 07:53:00
2:53 AM,24.1,18.0,77,30.08,10.0,South,5.8,-,N/A,,Clear,170,2013-12-13 08:53:00
3:53 AM,19.9,17.1,89,30.06,10.0,SE,4.6,-,N/A,,Clear,130,2013-12-13 09:53:00
4:53 AM,19.9,17.1,89,30.03,8.0,ESE,3.5,-,N/A,,Clear,110,2013-12-13 10:53:00
5:53 AM,19.0,17.1,92,30.01,7.0,ESE,4.6,-,N/A,,Clear,120,2013-12-13 11:53:00
6:53 AM,19.9,18.0,92,30.01,6.0,ESE,4.6,-,N/A,,Clear,120,2013-12-13 12:53:00
7:53 AM,19.9,18.0,92,29.99,5.0,SE,5.8,-,N/A,,Clear,130,2013-12-13 13:53:00
8:53 AM,21.0,18.0,88,29.99,5.0,East,4.6,-,N/A,,Clear,90,2013-12-13 14:53:00
9:53 AM,25.0,21.9,88,29.99,6.0,ESE,3.5,-,N/A,,Partly Cloudy,120,2013-12-13 15:53:00
10:53 AM,30.9,25.0,79,29.97,6.0,East,3.5,-,N/A,,Haze,90,2013-12-13 16:53:00
11:53 AM,34.0,28.0,79,29.94,7.0,East,4.6,-,N/A,,Clear,100,2013-12-13 17:53:00
12:53 PM,35.1,28.9,78,29.90,7.0,East,4.6,-,N/A,,Clear,80,2013-12-13 18:53:00
1:53 PM,37.0,30.0,76,29.88,7.0,ENE,5.8,-,N/A,,Overcast,70,2013-12-13 19:53:00
2:25 PM,37.0,30.0,76,29.85,7.0,ENE,6.9,-,N/A,,Overcast,60,2013-12-13 20:25:00
2:53 PM,37.0,30.9,79,29.88,6.0,ENE,5.8,-,N/A,,Haze,60,2013-12-13 20:53:00
3:53 PM,36.0,30.0,79,29.89,6.0,NE,6.9,-,N/A,,Haze,50,2013-12-13 21:53:00
4:14 PM,35.1,30.0,82,29.86,6.0,ENE,6.9,-,N/A,,Haze,60,2013-12-13 22:14:00
4:53 PM,35.1,30.0,82,29.91,5.0,NE,6.9,-,N/A,,Haze,50,2013-12-13 22:53:00
5:53 PM,34.0,28.9,82,29.91,6.0,NE,8.1,-,N/A,,Haze,40,2013-12-13 23:53:00
6:53 PM,34.0,28.9,82,29.93,6.0,NNE,9.2,-,N/A,,Haze,20,2013-12-14 00:53:00
7:53 PM,34.0,28.9,82,29.96,6.0,North,9.2,-,N/A,,Haze,10,2013-12-14 01:53:00
8:53 PM,33.1,30.0,89,29.97,3.0,North,10.4,-,N/A,,Overcast,10,2013-12-14 02:53:00
9:53 PM,32.0,28.0,85,29.98,6.0,North,9.2,-,N/A,,Overcast,10,2013-12-14 03:53:00
10:53 PM,30.9,27.0,85,29.99,6.0,North,15.0,23.0,N/A,,Overcast,360,2013-12-14 04:53:00
11:53 PM,30.0,25.0,82,30.01,6.0,North,17.3,21.9,N/A,,Haze,360,2013-12-14 05:53:00